createdAt,value
2019-01-12T00:00:38.339Z,100.00
2019-01-12T00:03:05.105Z,100.00
2019-01-12T00:05:31.848Z,100.00
2019-01-12T00:07:58.625Z,100.00
2019-01-12T00:10:25.380Z,100.00
2019-01-12T00:12:52.148Z,100.00
2019-01-12T00:15:19.236Z,100.00
2019-01-12T00:17:46.083Z,100.00
2019-01-12T00:20:12.954Z,100.00
2019-01-12T00:22:39.724Z,100.00
2019-01-12T00:25:06.476Z,100.00
2019-01-12T00:27:33.237Z,100.00
2019-01-12T00:29:59.988Z,100.00
2019-01-12T00:32:26.772Z,100.00
2019-01-12T00:34:53.528Z,100.00
2019-01-12T00:37:20.282Z,100.00
2019-01-12T00:39:47.109Z,100.00
2019-01-12T00:42:13.872Z,100.00
2019-01-12T00:44:40.651Z,100.00
2019-01-12T00:47:07.404Z,100.00
2019-01-12T00:49:34.160Z,100.00
2019-01-12T00:52:00.901Z,100.00
2019-01-12T00:54:27.672Z,100.00
2019-01-12T00:56:54.417Z,100.00
2019-01-12T00:59:21.396Z,100.00
2019-01-12T01:01:48.359Z,100.00
2019-01-12T01:04:15.116Z,100.00
2019-01-12T01:06:41.840Z,100.00
2019-01-12T01:09:08.626Z,100.00
2019-01-12T01:11:35.498Z,100.00
2019-01-12T01:14:02.254Z,100.00
2019-01-12T01:16:29.009Z,100.00
2019-01-12T01:18:55.784Z,100.00
2019-01-12T01:21:22.524Z,100.00
2019-01-12T01:23:49.304Z,100.00
2019-01-12T01:26:16.061Z,100.00
2019-01-12T01:28:42.832Z,100.00
2019-01-12T01:31:09.600Z,100.00
2019-01-12T01:33:36.368Z,100.00
2019-01-12T01:36:03.114Z,100.00
2019-01-12T01:38:29.880Z,100.00
2019-01-12T01:40:56.620Z,100.00
2019-01-12T01:43:23.383Z,100.00
2019-01-12T01:45:50.142Z,100.00
2019-01-12T01:48:16.917Z,100.00
2019-01-12T01:50:43.652Z,100.00
2019-01-12T01:53:10.413Z,100.00
2019-01-12T01:55:37.195Z,100.00
2019-01-12T01:58:03.941Z,100.00
2019-01-12T02:00:30.821Z,100.00
2019-01-12T02:02:57.584Z,100.00
2019-01-12T02:05:24.366Z,100.00
2019-01-12T02:07:51.110Z,100.00
2019-01-12T02:10:20.417Z,100.00
2019-01-12T02:12:47.183Z,100.00
2019-01-12T02:15:13.971Z,100.00
2019-01-12T02:17:40.752Z,100.00
2019-01-12T02:20:07.739Z,100.00
2019-01-12T02:22:34.495Z,100.00
2019-01-12T02:25:01.290Z,100.00
2019-01-12T02:27:28.140Z,100.00
2019-01-12T02:29:54.924Z,100.00
2019-01-12T02:32:21.688Z,100.00
2019-01-12T02:34:48.484Z,100.00
2019-01-12T02:37:15.233Z,100.00
2019-01-12T02:39:41.996Z,100.00
2019-01-12T02:42:08.756Z,100.00
2019-01-12T02:44:35.582Z,100.00
2019-01-12T02:47:02.326Z,100.00
2019-01-12T02:49:29.092Z,100.00
2019-01-12T02:51:55.860Z,100.00
2019-01-12T02:54:22.612Z,100.00
2019-01-12T02:56:49.351Z,100.00
2019-01-12T02:59:16.125Z,100.00
2019-01-12T03:01:42.884Z,100.00
2019-01-12T03:04:09.642Z,100.00
2019-01-12T03:06:36.408Z,100.00
2019-01-12T03:09:06.473Z,100.00
2019-01-12T03:11:33.268Z,100.00
2019-01-12T03:14:00.025Z,100.00
2019-01-12T03:16:26.803Z,100.00
2019-01-12T03:18:53.590Z,100.00
2019-01-12T03:21:20.403Z,100.00
2019-01-12T03:23:47.143Z,100.00
2019-01-12T03:26:13.917Z,100.00
2019-01-12T03:28:40.662Z,100.00
2019-01-12T03:31:07.436Z,100.00
2019-01-12T03:33:34.174Z,100.00
2019-01-12T03:36:00.978Z,100.00
2019-01-12T03:38:27.720Z,100.00
2019-01-12T03:40:54.476Z,100.00
2019-01-12T03:43:21.228Z,100.00
2019-01-12T03:45:48.169Z,100.00
2019-01-12T03:48:14.936Z,100.00
2019-01-12T03:50:41.692Z,100.00
2019-01-12T03:53:08.444Z,100.00
2019-01-12T03:55:35.206Z,100.00
2019-01-12T03:58:01.940Z,100.00
2019-01-12T04:00:28.707Z,100.00
2019-01-12T04:02:55.463Z,100.00
2019-01-12T04:05:22.332Z,100.00
2019-01-12T04:07:49.090Z,100.00
2019-01-12T04:10:15.860Z,100.00
2019-01-12T04:12:42.642Z,100.00
2019-01-12T04:15:09.481Z,100.00
2019-01-12T04:17:36.249Z,100.00
2019-01-12T04:20:04.963Z,100.00
2019-01-12T04:22:31.712Z,100.00
2019-01-12T04:24:58.470Z,100.00
2019-01-12T04:27:25.236Z,100.00
2019-01-12T04:29:51.983Z,100.00
2019-01-12T04:32:18.749Z,100.00
2019-01-12T04:34:45.511Z,100.00
2019-01-12T04:37:12.294Z,100.00
2019-01-12T04:39:39.040Z,100.00
2019-01-12T04:42:05.812Z,100.00
2019-01-12T04:44:32.550Z,100.00
2019-01-12T04:46:59.338Z,100.00
2019-01-12T04:49:26.078Z,100.00
2019-01-12T04:51:52.867Z,100.00
2019-01-12T04:54:19.604Z,100.00
2019-01-12T04:56:46.377Z,100.00
2019-01-12T04:59:13.157Z,100.00
2019-01-12T05:01:39.933Z,100.00
2019-01-12T05:04:06.844Z,100.00
2019-01-12T05:06:33.611Z,100.00
2019-01-12T05:09:00.341Z,100.00
2019-01-12T05:11:27.108Z,100.00
2019-01-12T05:13:53.884Z,100.00
2019-01-12T05:16:20.829Z,100.00
2019-01-12T05:18:47.586Z,100.00
2019-01-12T05:21:14.352Z,100.00
2019-01-12T05:23:41.095Z,100.00
2019-01-12T05:26:07.872Z,100.00
2019-01-12T05:28:34.628Z,100.00
2019-01-12T05:31:01.380Z,100.00
2019-01-12T05:33:28.128Z,100.00
2019-01-12T05:35:54.884Z,100.00
2019-01-12T05:38:21.657Z,100.00
2019-01-12T05:40:48.392Z,100.00
2019-01-12T05:43:16.022Z,100.00
2019-01-12T05:45:41.900Z,100.00
2019-01-12T05:48:08.697Z,100.00
2019-01-12T05:50:35.432Z,100.00
2019-01-12T05:53:02.197Z,100.00
2019-01-12T05:55:28.961Z,100.00
2019-01-12T05:57:55.705Z,100.00
2019-01-12T06:00:22.458Z,100.00
2019-01-12T06:02:49.231Z,100.00
2019-01-12T06:05:15.988Z,100.00
2019-01-12T06:07:42.748Z,100.00
2019-01-12T06:10:09.522Z,100.00
2019-01-12T06:12:36.292Z,100.00
2019-01-12T06:15:03.811Z,100.00
2019-01-12T06:17:30.591Z,100.00
2019-01-12T06:19:57.352Z,100.00
2019-01-12T06:22:24.112Z,100.00
2019-01-12T06:24:50.844Z,100.00
2019-01-12T06:27:17.611Z,100.00
2019-01-12T06:29:44.356Z,100.00
2019-01-12T06:32:11.142Z,100.00
2019-01-12T06:34:37.894Z,100.00
2019-01-12T06:37:04.693Z,100.00
2019-01-12T06:39:31.441Z,100.00
2019-01-12T06:41:58.221Z,100.00
2019-01-12T06:44:24.974Z,100.00
2019-01-12T06:46:51.725Z,100.00
2019-01-12T06:49:18.508Z,100.00
2019-01-12T06:51:45.339Z,100.00
2019-01-12T06:54:12.084Z,100.00
2019-01-12T06:56:38.885Z,100.00
2019-01-12T06:59:05.628Z,100.00
2019-01-12T07:01:32.556Z,100.00
2019-01-12T07:03:59.341Z,100.00
2019-01-12T07:06:26.099Z,100.00
2019-01-12T07:08:52.860Z,100.00
2019-01-12T07:11:19.720Z,100.00
2019-01-12T07:13:46.536Z,100.00
2019-01-12T07:16:13.281Z,100.00
2019-01-12T07:18:40.348Z,100.00
2019-01-12T07:21:07.092Z,100.00
2019-01-12T07:23:33.864Z,100.00
2019-01-12T07:26:00.608Z,100.00
2019-01-12T07:28:27.444Z,100.00
2019-01-12T07:30:54.128Z,100.00
2019-01-12T07:33:20.905Z,100.00
2019-01-12T07:35:47.655Z,100.00
2019-01-12T07:38:14.432Z,100.00
2019-01-12T07:40:42.635Z,100.00
2019-01-12T07:43:10.405Z,100.00
2019-01-12T07:45:37.132Z,100.00
2019-01-12T07:48:03.900Z,100.00
2019-01-12T07:50:30.695Z,100.00
2019-01-12T07:52:57.460Z,100.00
2019-01-12T07:55:24.223Z,100.00
2019-01-12T07:57:51.013Z,100.00
2019-01-12T08:00:19.662Z,100.00
2019-01-12T08:02:46.440Z,100.00
2019-01-12T08:05:13.202Z,100.00
2019-01-12T08:07:39.977Z,100.00
2019-01-12T08:10:10.216Z,100.00
2019-01-12T08:12:36.988Z,100.00
2019-01-12T08:15:04.320Z,100.00
2019-01-12T08:17:31.090Z,100.00
2019-01-12T08:19:57.842Z,100.00
2019-01-12T08:22:24.609Z,100.00
2019-01-12T08:24:51.394Z,100.00
2019-01-12T08:27:18.164Z,100.00
2019-01-12T08:29:44.924Z,100.00
2019-01-12T08:32:11.675Z,100.00
2019-01-12T08:34:38.428Z,100.00
2019-01-12T08:37:05.160Z,100.00
2019-01-12T08:39:31.940Z,100.00
2019-01-12T08:41:58.704Z,100.00
2019-01-12T08:44:25.505Z,100.00
2019-01-12T08:46:52.371Z,100.00
2019-01-12T08:49:19.138Z,100.00
2019-01-12T08:51:45.873Z,100.00
2019-01-12T08:54:12.640Z,100.00
2019-01-12T08:56:39.385Z,100.00
2019-01-12T08:59:06.160Z,100.00
2019-01-12T09:01:32.908Z,100.00
2019-01-12T09:03:59.678Z,100.00
2019-01-12T09:06:26.485Z,100.00
2019-01-12T09:08:53.244Z,100.00
2019-01-12T09:11:19.984Z,100.00
2019-01-12T09:13:46.782Z,100.00
2019-01-12T09:16:13.661Z,100.00
2019-01-12T09:18:40.425Z,100.00
2019-01-12T09:21:07.165Z,100.00
2019-01-12T09:23:33.938Z,100.00
2019-01-12T09:26:00.679Z,100.00
2019-01-12T09:28:27.462Z,100.00
2019-01-12T09:30:54.214Z,100.00
2019-01-12T09:33:21.010Z,100.00
2019-01-12T09:35:47.748Z,100.00
2019-01-12T09:38:14.516Z,100.00
2019-01-12T09:40:41.360Z,100.00
2019-01-12T09:43:08.114Z,100.00
2019-01-12T09:45:34.861Z,100.00
2019-01-12T09:48:01.626Z,100.00
2019-01-12T09:50:28.420Z,100.00
2019-01-12T09:52:55.180Z,100.00
2019-01-12T09:55:22.126Z,100.00
2019-01-12T09:57:48.877Z,100.00
2019-01-12T10:00:17.608Z,100.00
2019-01-12T10:02:44.377Z,100.00
2019-01-12T10:05:11.137Z,100.00
2019-01-12T10:07:37.880Z,100.00
2019-01-12T10:10:07.441Z,100.00
2019-01-12T10:12:34.168Z,100.00
2019-01-12T10:15:00.964Z,100.00
2019-01-12T10:17:27.788Z,100.00
2019-01-12T10:19:54.551Z,100.00
2019-01-12T10:22:21.300Z,100.00
2019-01-12T10:24:48.076Z,100.00
2019-01-12T10:27:14.824Z,100.00
2019-01-12T10:29:41.596Z,100.00
2019-01-12T10:32:08.350Z,100.00
2019-01-12T10:34:35.188Z,100.00
2019-01-12T10:37:01.924Z,100.00
2019-01-12T10:39:28.700Z,100.00
2019-01-12T10:41:55.472Z,100.00
2019-01-12T10:44:22.229Z,100.00
2019-01-12T10:46:48.969Z,100.00
2019-01-12T10:49:15.736Z,100.00
2019-01-12T10:51:42.507Z,100.00
2019-01-12T10:54:09.268Z,100.00
2019-01-12T10:56:36.020Z,100.00
2019-01-12T10:59:02.800Z,100.00
2019-01-12T11:01:29.633Z,100.00
2019-01-12T11:03:56.397Z,100.00
2019-01-12T11:06:23.208Z,100.00
2019-01-12T11:08:49.989Z,100.00
2019-01-12T11:11:16.973Z,100.00
2019-01-12T11:13:43.745Z,100.00
2019-01-12T11:16:10.581Z,100.00
2019-01-12T11:18:37.426Z,100.00
2019-01-12T11:21:04.400Z,100.00
2019-01-12T11:23:31.218Z,100.00
2019-01-12T11:25:58.071Z,100.00
2019-01-12T11:28:24.884Z,100.00
2019-01-12T11:30:51.749Z,100.00
2019-01-12T11:33:18.495Z,100.00
2019-01-12T11:35:45.268Z,100.00
2019-01-12T11:38:12.028Z,100.00
2019-01-12T11:40:38.820Z,100.00
2019-01-12T11:43:05.647Z,100.00
2019-01-12T11:45:32.380Z,99.62
2019-01-12T11:47:59.160Z,99.30
2019-01-12T11:50:26.173Z,99.27
2019-01-12T11:52:52.929Z,100.00
2019-01-12T11:55:19.782Z,100.00
2019-01-12T11:57:46.548Z,100.00
2019-01-12T12:00:16.309Z,100.00
2019-01-12T12:02:43.193Z,100.00
2019-01-12T12:05:09.957Z,100.00
2019-01-12T12:07:36.703Z,100.00
2019-01-12T12:10:04.165Z,100.00
2019-01-12T12:12:30.912Z,100.00
2019-01-12T12:14:57.688Z,100.00
2019-01-12T12:17:24.487Z,100.00
2019-01-12T12:19:51.248Z,100.00
2019-01-12T12:22:18.012Z,100.00
2019-01-12T12:24:44.768Z,99.54
2019-01-12T12:27:11.556Z,99.93
2019-01-12T12:29:38.312Z,100.00
2019-01-12T12:32:05.093Z,100.00
2019-01-12T12:34:31.820Z,100.00
2019-01-12T12:36:58.572Z,100.00
2019-01-12T12:39:25.370Z,100.00
2019-01-12T12:41:52.205Z,100.00
2019-01-12T12:44:18.956Z,100.00
2019-01-12T12:46:45.719Z,100.00
2019-01-12T12:49:12.460Z,100.00
2019-01-12T12:51:39.223Z,100.00
2019-01-12T12:54:06.000Z,100.00
2019-01-12T12:56:32.806Z,100.00
2019-01-12T12:58:59.613Z,100.00
2019-01-12T13:01:26.297Z,100.00
2019-01-12T13:03:53.041Z,100.00
2019-01-12T13:06:19.800Z,100.00
2019-01-12T13:08:48.556Z,100.00
2019-01-12T13:11:13.305Z,100.00
2019-01-12T13:13:40.604Z,100.00
2019-01-12T13:16:07.379Z,100.00
2019-01-12T13:18:34.137Z,100.00
2019-01-12T13:21:00.899Z,100.00
2019-01-12T13:23:27.633Z,100.00
2019-01-12T13:25:54.407Z,100.00
2019-01-12T13:28:21.150Z,100.00
2019-01-12T13:30:47.948Z,100.00
2019-01-12T13:33:14.725Z,100.00
2019-01-12T13:35:41.496Z,100.00
2019-01-12T13:38:08.263Z,100.00
2019-01-12T13:40:35.023Z,100.00
2019-01-12T13:43:01.796Z,100.00
2019-01-12T13:45:28.546Z,100.00
2019-01-12T13:47:55.312Z,100.00
2019-01-12T13:50:23.760Z,100.00
2019-01-12T13:52:50.516Z,100.00
2019-01-12T13:55:17.268Z,100.00
2019-01-12T13:57:47.819Z,100.00
2019-01-12T14:00:15.620Z,100.00
2019-01-12T14:02:42.372Z,100.00
2019-01-12T14:05:09.124Z,100.00
2019-01-12T14:07:35.965Z,100.00
2019-01-12T14:10:02.807Z,100.00
2019-01-12T14:12:29.600Z,100.00
2019-01-12T14:14:56.341Z,100.00
2019-01-12T14:17:23.140Z,100.00
2019-01-12T14:19:50.790Z,100.00
2019-01-12T14:22:16.760Z,100.00
2019-01-12T14:24:43.511Z,100.00
2019-01-12T14:27:10.265Z,100.00
2019-01-12T14:29:36.996Z,100.00
2019-01-12T14:32:03.792Z,100.00
2019-01-12T14:34:30.549Z,100.00
2019-01-12T14:36:57.310Z,100.00
2019-01-12T14:39:24.117Z,100.00
2019-01-12T14:41:50.894Z,100.00
2019-01-12T14:44:17.661Z,100.00
2019-01-12T14:46:44.437Z,100.00
2019-01-12T14:49:11.188Z,100.00
2019-01-12T14:51:37.952Z,100.00
2019-01-12T14:54:04.693Z,100.00
2019-01-12T14:56:31.429Z,100.00
2019-01-12T14:58:58.251Z,100.00
2019-01-12T15:01:24.989Z,100.00
2019-01-12T15:03:51.763Z,100.00
2019-01-12T15:06:18.520Z,100.00
2019-01-12T15:08:45.261Z,100.00
2019-01-12T15:11:12.013Z,100.00
2019-01-12T15:13:38.781Z,100.00
2019-01-12T15:16:05.518Z,100.00
2019-01-12T15:18:32.298Z,99.93
2019-01-12T15:20:59.107Z,99.56
2019-01-12T15:23:25.872Z,99.54
2019-01-12T15:25:52.605Z,99.46
2019-01-12T15:28:19.352Z,99.38
2019-01-12T15:30:46.133Z,99.48
2019-01-12T15:33:12.895Z,99.62
2019-01-12T15:35:41.577Z,99.30
2019-01-12T15:38:08.429Z,99.44
2019-01-12T15:40:35.113Z,99.17
2019-01-12T15:43:01.863Z,99.15
2019-01-12T15:45:28.664Z,98.91
2019-01-12T15:47:55.441Z,99.21
2019-01-12T15:50:23.765Z,99.92
2019-01-12T15:52:50.528Z,99.16
2019-01-12T15:55:17.357Z,99.75
2019-01-12T15:57:44.136Z,100.00
2019-01-12T16:00:13.668Z,100.00
2019-01-12T16:02:40.480Z,100.00
2019-01-12T16:05:07.259Z,100.00
2019-01-12T16:07:34.029Z,100.00
2019-01-12T16:10:00.781Z,100.00
2019-01-12T16:12:27.542Z,100.00
2019-01-12T16:14:54.340Z,100.00
2019-01-12T16:17:21.121Z,100.00
2019-01-12T16:19:47.958Z,100.00
2019-01-12T16:22:14.700Z,100.00
2019-01-12T16:24:41.545Z,100.00
2019-01-12T16:27:08.356Z,100.00
2019-01-12T16:29:35.221Z,100.00
2019-01-12T16:32:01.999Z,100.00
2019-01-12T16:34:28.834Z,100.00
2019-01-12T16:36:55.632Z,100.00
2019-01-12T16:39:22.491Z,100.00
2019-01-12T16:41:49.685Z,100.00
2019-01-12T16:44:16.445Z,100.00
2019-01-12T16:46:43.221Z,100.00
2019-01-12T16:49:10.061Z,100.00
2019-01-12T16:51:36.886Z,100.00
2019-01-12T16:54:03.673Z,100.00
2019-01-12T16:56:30.428Z,100.00
2019-01-12T16:58:57.210Z,100.00
2019-01-12T17:01:24.051Z,100.00
2019-01-12T17:03:50.840Z,100.00
2019-01-12T17:06:17.593Z,100.00
2019-01-12T17:08:44.836Z,100.00
2019-01-12T17:11:11.578Z,100.00
2019-01-12T17:13:38.344Z,100.00
2019-01-12T17:16:05.088Z,100.00
2019-01-12T17:18:31.856Z,100.00
2019-01-12T17:20:58.594Z,100.00
2019-01-12T17:23:25.350Z,100.00
2019-01-12T17:25:52.162Z,100.00
2019-01-12T17:28:18.932Z,100.00
2019-01-12T17:30:45.851Z,100.00
2019-01-12T17:33:12.712Z,100.00
2019-01-12T17:35:39.464Z,100.00
2019-01-12T17:38:06.320Z,100.00
2019-01-12T17:40:33.141Z,100.00
2019-01-12T17:42:59.898Z,100.00
2019-01-12T17:45:26.664Z,100.00
2019-01-12T17:47:53.454Z,100.00
2019-01-12T17:50:21.679Z,100.00
2019-01-12T17:52:48.412Z,100.00
2019-01-12T17:55:17.043Z,100.00
2019-01-12T17:57:43.796Z,100.00
2019-01-12T18:00:15.248Z,100.00
2019-01-12T18:02:42.002Z,100.00
2019-01-12T18:05:08.772Z,100.00
2019-01-12T18:07:35.520Z,100.00
2019-01-12T18:10:02.585Z,100.00
2019-01-12T18:12:29.333Z,100.00
2019-01-12T18:14:56.140Z,100.00
2019-01-12T18:17:22.888Z,100.00
2019-01-12T18:19:49.653Z,100.00
2019-01-12T18:22:16.384Z,100.00
2019-01-12T18:24:43.172Z,100.00
2019-01-12T18:27:09.917Z,100.00
2019-01-12T18:29:36.679Z,100.00
2019-01-12T18:32:03.448Z,100.00
2019-01-12T18:34:30.208Z,100.00
2019-01-12T18:36:56.962Z,100.00
2019-01-12T18:39:23.773Z,100.00
2019-01-12T18:41:51.571Z,100.00
2019-01-12T18:44:18.334Z,100.00
2019-01-12T18:46:45.076Z,100.00
2019-01-12T18:49:11.827Z,100.00
2019-01-12T18:51:38.597Z,100.00
2019-01-12T18:54:05.349Z,100.00
2019-01-12T18:56:32.128Z,100.00
2019-01-12T18:58:59.155Z,100.00
2019-01-12T19:01:25.655Z,100.00
2019-01-12T19:03:52.386Z,100.00
2019-01-12T19:06:19.155Z,100.00
2019-01-12T19:08:45.892Z,100.00
2019-01-12T19:11:12.648Z,100.00
2019-01-12T19:13:39.400Z,100.00
2019-01-12T19:16:06.242Z,100.00
2019-01-12T19:18:32.980Z,100.00
2019-01-12T19:20:59.757Z,100.00
2019-01-12T19:23:26.496Z,100.00
2019-01-12T19:25:53.273Z,100.00
2019-01-12T19:28:20.020Z,100.00
2019-01-12T19:30:46.917Z,100.00
2019-01-12T19:33:13.668Z,100.00
2019-01-12T19:35:40.430Z,100.00
2019-01-12T19:38:07.184Z,100.00
2019-01-12T19:40:34.060Z,100.00
2019-01-12T19:43:00.796Z,100.00
2019-01-12T19:45:27.567Z,100.00
2019-01-12T19:47:54.296Z,100.00
2019-01-12T19:50:24.363Z,100.00
2019-01-12T19:52:51.108Z,100.00
2019-01-12T19:55:17.906Z,100.00
2019-01-12T19:57:44.632Z,100.00
2019-01-12T20:00:13.986Z,100.00
2019-01-12T20:02:40.751Z,100.00
2019-01-12T20:05:07.517Z,100.00
2019-01-12T20:07:34.297Z,100.00
2019-01-12T20:10:01.049Z,100.00
2019-01-12T20:12:27.826Z,100.00
2019-01-12T20:14:54.568Z,100.00
2019-01-12T20:17:21.325Z,100.00
2019-01-12T20:19:48.063Z,100.00
2019-01-12T20:22:14.820Z,100.00
2019-01-12T20:24:41.556Z,100.00
2019-01-12T20:27:08.328Z,100.00
2019-01-12T20:29:35.088Z,100.00
2019-01-12T20:32:29.745Z,100.00
2019-01-12T20:35:16.545Z,100.00
2019-01-12T20:38:18.321Z,100.00
2019-01-12T20:41:00.531Z,100.00
2019-01-12T20:43:53.571Z,100.00
2019-01-12T20:46:45.620Z,100.00
2019-01-12T20:49:29.157Z,100.00
2019-01-12T20:52:14.739Z,100.00
2019-01-12T20:55:08.277Z,100.00
2019-01-12T20:57:52.573Z,100.00
2019-01-12T21:00:53.272Z,100.00
2019-01-12T21:03:32.521Z,100.00
2019-01-12T21:06:09.297Z,100.00
2019-01-12T21:08:46.668Z,100.00
2019-01-12T21:11:41.965Z,100.00
2019-01-12T21:14:24.279Z,100.00
2019-01-12T21:16:56.500Z,100.00
2019-01-12T21:19:23.248Z,100.00
2019-01-12T21:21:50.006Z,100.00
2019-01-12T21:24:16.756Z,100.00
2019-01-12T21:26:43.517Z,100.00
2019-01-12T21:29:10.329Z,100.00
2019-01-12T21:31:37.128Z,100.00
2019-01-12T21:34:03.881Z,100.00
2019-01-12T21:36:30.627Z,100.00
2019-01-12T21:38:57.392Z,100.00
2019-01-12T21:41:24.137Z,100.00
2019-01-12T21:43:50.905Z,100.00
2019-01-12T21:46:17.645Z,100.00
2019-01-12T21:48:44.406Z,100.00
2019-01-12T21:51:11.205Z,100.00
2019-01-12T21:53:37.980Z,100.00
2019-01-12T21:56:04.833Z,100.00
2019-01-12T21:58:31.635Z,100.00
2019-01-12T22:00:58.369Z,100.00
2019-01-12T22:03:25.141Z,100.00
2019-01-12T22:05:51.899Z,100.00
2019-01-12T22:08:18.664Z,100.00
2019-01-12T22:10:45.472Z,100.00
2019-01-12T22:13:12.236Z,100.00
2019-01-12T22:15:38.988Z,100.00
2019-01-12T22:18:05.760Z,100.00
2019-01-12T22:20:32.520Z,100.00
2019-01-12T22:22:59.281Z,100.00
2019-01-12T22:25:26.044Z,100.00
2019-01-12T22:27:52.805Z,100.00
2019-01-12T22:30:19.548Z,100.00
2019-01-12T22:32:46.336Z,100.00
2019-01-12T22:35:13.080Z,100.00
2019-01-12T22:37:39.862Z,100.00
2019-01-12T22:40:11.161Z,100.00
2019-01-12T22:42:37.917Z,100.00
2019-01-12T22:45:04.756Z,100.00
2019-01-12T22:47:31.505Z,100.00
2019-01-12T22:49:58.252Z,100.00
2019-01-12T22:52:25.021Z,100.00
2019-01-12T22:54:51.749Z,100.00
2019-01-12T22:57:18.520Z,100.00
2019-01-12T22:59:45.281Z,100.00
2019-01-12T23:02:12.103Z,100.00
2019-01-12T23:04:38.790Z,100.00
2019-01-12T23:07:11.353Z,100.00
2019-01-12T23:09:32.384Z,100.00
2019-01-12T23:11:59.129Z,100.00
2019-01-12T23:14:25.888Z,100.00
2019-01-12T23:16:52.637Z,100.00
2019-01-12T23:19:19.396Z,100.00
2019-01-12T23:21:46.140Z,100.00
2019-01-12T23:24:12.921Z,100.00
2019-01-12T23:26:39.668Z,100.00
2019-01-12T23:29:06.436Z,100.00
2019-01-12T23:31:33.204Z,100.00
2019-01-12T23:33:59.963Z,100.00
2019-01-12T23:36:26.712Z,100.00
2019-01-12T23:38:53.468Z,100.00
2019-01-12T23:41:20.221Z,100.00
2019-01-12T23:43:46.992Z,100.00
2019-01-12T23:46:13.725Z,100.00
2019-01-12T23:48:40.500Z,100.00
2019-01-12T23:51:07.258Z,100.00
2019-01-12T23:53:34.009Z,100.00
2019-01-12T23:56:00.765Z,100.00
2019-01-12T23:58:27.564Z,100.00
